Strona główna
METAR-TAF:

METAR-TAF

Lotnisko :

Port lotniczy Zielona Góra-Babimost

Zielona Góra, Polska

Szerokość geograficzna: 52-08-19N, Długość geograficzna: 015-47-55E, wysokość: 59 m

Aktualna obserwacja pogody

Raport powstał 25 minut temu, godzina 07:00 UTC
Wiatr 5 kt od północno-północny wschód, zmienny między północno-północny zachód i północny wschód
Temperatura 20°C
Wilgotność 53%
Ciśnienie 1021 hPa
Widzialność 10 km lub więcej
Brak chmur poniżej 1500 m i brak chmur cumulonimbus

METAR: EPZG 230700Z 03005KT 330V040 CAVOK 20/10 Q1021

czas: 09:25 (07:25 UTC)

Prognoza

Raport powstał 1 godzina i 55 minut temu, godzina 05:30 UTC
Prognoza ważna od 23 godzina 06 UTC do 23 godzina 15 UTC
Wiatr 2 kt z kierunków zmiennych
Widzialność 10 km lub więcej
Brak chmur poniżej 1500 m i brak chmur cumulonimbus
Stopniowe zmiany
od 23 godzina 07 UTC do 23 godzina 09 UTC
Wiatr 10 kt od wschodnio-północny wschód

TAF: EPZG 230530Z 2306/2315 VRB02KT CAVOK BECMG 2307/2309 07010KT

Obserwacja i prognoza pogody dla ponad 4000 lotnisk (raport METAR i TAF).

Dostępne stacje oznaczono żółtymi i czerwonymi punktami na mapie.

Najedź kursorem aby zobaczyć nazwę stacji.

Kliknij aby zobaczyć obserwacje i prognozy pogody.

Aby zmienić mapę: kliknij na zielony przycisk z czarnym krzyżykiem, aby powiększyć; na zielony przycisk z myślnikiem, aby pomniejszyć; na zielone strzałki, aby przejść do map sąsiednich.


METAR-TAF: